createdAt,value
2022-08-27T00:01:23.095Z,94877.97
2022-08-27T00:03:21.337Z,94875.31
2022-08-27T00:05:20.734Z,94881.41
2022-08-27T00:07:19.662Z,94874.78
2022-08-27T00:09:23.768Z,94875.50
2022-08-27T00:11:26.645Z,94870.75
2022-08-27T00:13:26.572Z,94865.03
2022-08-27T00:15:25.415Z,94861.50
2022-08-27T00:17:23.796Z,94871.06
2022-08-27T00:19:22.606Z,94875.94
2022-08-27T00:21:21.052Z,94875.22
2022-08-27T00:23:19.472Z,94874.88
2022-08-27T00:25:18.011Z,94873.34
2022-08-27T00:27:16.230Z,94860.03
2022-08-27T00:29:15.933Z,94861.38
2022-08-27T00:31:14.271Z,94860.72
2022-08-27T00:33:13.406Z,94866.88
2022-08-27T00:35:12.193Z,94860.28
2022-08-27T00:37:10.472Z,94862.31
2022-08-27T00:39:09.007Z,94861.22
2022-08-27T00:41:09.023Z,94865.28
2022-08-27T00:43:07.139Z,94863.56
2022-08-27T00:45:08.914Z,94869.97
2022-08-27T00:47:12.152Z,94866.41
2022-08-27T00:49:22.474Z,94868.34
2022-08-27T00:51:22.297Z,94868.97
2022-08-27T00:53:23.773Z,94865.88
2022-08-27T00:55:25.948Z,94868.28
2022-08-27T00:57:28.298Z,94872.94
2022-08-27T00:59:29.386Z,94871.03
2022-08-27T01:01:31.609Z,94867.44
2022-08-27T01:03:30.356Z,94869.75
2022-08-27T01:05:29.131Z,94876.16
2022-08-27T01:07:29.745Z,94871.19
2022-08-27T01:09:29.212Z,94872.69
2022-08-27T01:11:27.601Z,94868.28
2022-08-27T01:13:59.215Z,94874.97
2022-08-27T01:15:53.308Z,94873.50
2022-08-27T01:17:53.788Z,94869.00
2022-08-27T01:19:56.962Z,94869.19
2022-08-27T01:22:01.169Z,94867.97
2022-08-27T01:24:05.887Z,94865.88
2022-08-27T01:26:08.321Z,94866.59
2022-08-27T01:28:06.833Z,94869.19
2022-08-27T01:30:07.733Z,94871.84
2022-08-27T01:32:11.713Z,94875.22
2022-08-27T01:34:09.881Z,94867.41
2022-08-27T01:36:08.827Z,94870.06
2022-08-27T01:38:09.387Z,94863.78
2022-08-27T01:40:19.406Z,94871.06
2022-08-27T01:42:23.708Z,94864.56
2022-08-27T01:44:21.965Z,94871.34
2022-08-27T01:46:22.813Z,94875.72
2022-08-27T01:48:23.037Z,94881.91
2022-08-27T01:50:24.771Z,94877.06
2022-08-27T01:52:26.420Z,94883.75
2022-08-27T01:54:24.582Z,94883.00
2022-08-27T01:56:22.850Z,94883.84
2022-08-27T01:58:25.191Z,94881.38
2022-08-27T02:00:26.913Z,94878.06
2022-08-27T02:02:25.709Z,94876.69
2022-08-27T02:04:25.701Z,94882.34
2022-08-27T02:06:23.975Z,94885.56
2022-08-27T02:08:23.036Z,94883.09
2022-08-27T02:10:24.797Z,94880.31
2022-08-27T02:12:24.122Z,94879.66
2022-08-27T02:14:24.064Z,94877.94
2022-08-27T02:16:22.425Z,94877.41
2022-08-27T02:18:20.952Z,94876.84
2022-08-27T02:20:20.384Z,94886.81
2022-08-27T02:22:18.589Z,94884.97
2022-08-27T02:24:17.272Z,94887.81
2022-08-27T02:26:15.631Z,94881.91
2022-08-27T02:28:14.307Z,94886.22
2022-08-27T02:30:17.320Z,94885.22
2022-08-27T02:32:23.897Z,94882.25
2022-08-27T02:34:30.808Z,94886.75
2022-08-27T02:36:29.296Z,94887.94
2022-08-27T02:38:27.774Z,94888.81
2022-08-27T02:40:29.594Z,94891.47
2022-08-27T02:42:28.750Z,94897.47
2022-08-27T02:44:27.346Z,94895.97
2022-08-27T02:46:29.139Z,94898.59
2022-08-27T02:48:27.368Z,94898.47
2022-08-27T02:50:27.008Z,94902.97
2022-08-27T02:52:27.517Z,94893.25
2022-08-27T02:54:27.240Z,94909.31
2022-08-27T02:56:25.319Z,94905.38
2022-08-27T02:58:23.608Z,94903.38
2022-08-27T03:00:24.236Z,94898.75
2022-08-27T03:02:24.060Z,94897.41
2022-08-27T03:04:28.057Z,94909.03
2022-08-27T03:06:26.351Z,94905.72
2022-08-27T03:08:24.841Z,94907.56
2022-08-27T03:10:23.621Z,94913.06
2022-08-27T03:12:22.801Z,94908.56
2022-08-27T03:14:23.118Z,94908.38
2022-08-27T03:16:21.493Z,94910.75
2022-08-27T03:18:21.729Z,94914.88
2022-08-27T03:20:20.192Z,94912.72
2022-08-27T03:22:18.430Z,94909.22
2022-08-27T03:24:16.645Z,94916.03
2022-08-27T03:26:15.767Z,94906.09
2022-08-27T03:28:22.813Z,94919.34
2022-08-27T03:30:23.838Z,94928.66
2022-08-27T03:32:22.099Z,94920.41
2022-08-27T03:34:22.628Z,94917.09
2022-08-27T03:36:20.828Z,94918.75
2022-08-27T03:38:19.162Z,94921.69
2022-08-27T03:40:18.015Z,94924.34
2022-08-27T03:42:16.381Z,94925.53
2022-08-27T03:44:21.301Z,94927.06
2022-08-27T03:46:20.568Z,94924.06
2022-08-27T03:48:19.596Z,94928.41
2022-08-27T03:50:19.455Z,94924.06
2022-08-27T03:52:18.048Z,94933.03
2022-08-27T03:54:16.622Z,94920.59
2022-08-27T03:56:15.714Z,94920.78
2022-08-27T03:58:14.121Z,94927.22
2022-08-27T04:00:13.592Z,94923.00
2022-08-27T04:02:11.856Z,94925.63
2022-08-27T04:04:14.215Z,94928.03
2022-08-27T04:06:14.043Z,94937.84
2022-08-27T04:08:12.840Z,94935.78
2022-08-27T04:10:13.041Z,94938.91
2022-08-27T04:12:11.688Z,94942.72
2022-08-27T04:14:26.414Z,94942.47
2022-08-27T04:16:27.226Z,94934.13
2022-08-27T04:18:25.643Z,94944.88
2022-08-27T04:20:35.074Z,94943.56
2022-08-27T04:22:35.739Z,94953.13
2022-08-27T04:24:36.066Z,94944.56
2022-08-27T04:26:34.388Z,94950.69
2022-08-27T04:28:36.527Z,94947.16
2022-08-27T04:30:41.150Z,94945.69
2022-08-27T04:32:39.393Z,94950.00
2022-08-27T04:34:38.057Z,94946.38
2022-08-27T04:36:36.368Z,94948.25
2022-08-27T04:38:36.104Z,94943.06
2022-08-27T04:40:48.718Z,94944.63
2022-08-27T04:42:47.083Z,94939.09
2022-08-27T04:44:46.300Z,94940.81
2022-08-27T04:46:49.176Z,94943.88
2022-08-27T04:48:47.605Z,94940.16
2022-08-27T04:50:49.103Z,94948.81
2022-08-27T04:52:47.871Z,94945.50
2022-08-27T04:54:47.612Z,94947.38
2022-08-27T04:56:45.875Z,94947.56
2022-08-27T04:58:45.269Z,94950.88
2022-08-27T05:00:44.765Z,94952.06
2022-08-27T05:02:43.011Z,94955.13
2022-08-27T05:04:42.371Z,94953.69
2022-08-27T05:06:40.688Z,94958.22
2022-08-27T05:08:39.882Z,94953.47
2022-08-27T05:10:44.766Z,94959.28
2022-08-27T05:12:43.166Z,94953.22
2022-08-27T05:14:41.594Z,94954.09
2022-08-27T05:16:40.186Z,94962.06
2022-08-27T05:18:42.205Z,94962.41
2022-08-27T05:20:49.530Z,94967.44
2022-08-27T05:22:47.880Z,94962.75
2022-08-27T05:24:50.341Z,94959.50
2022-08-27T05:26:51.115Z,94964.75
2022-08-27T05:28:49.394Z,94953.94
2022-08-27T05:30:52.586Z,94966.06
2022-08-27T05:32:54.121Z,94962.19
2022-08-27T05:34:53.085Z,94966.31
2022-08-27T05:36:51.956Z,94971.69
2022-08-27T05:38:51.652Z,94968.41
2022-08-27T05:40:50.272Z,94966.13
2022-08-27T05:42:50.313Z,94971.47
2022-08-27T05:44:49.683Z,94967.34
2022-08-27T05:46:47.967Z,94965.47
2022-08-27T05:48:46.262Z,94966.72
2022-08-27T05:50:46.363Z,94973.75
2022-08-27T05:52:44.693Z,94968.38
2022-08-27T05:54:42.898Z,94974.59
2022-08-27T05:56:41.189Z,94965.47
2022-08-27T05:59:06.675Z,94977.34
2022-08-27T06:01:10.077Z,94974.72
2022-08-27T06:03:10.011Z,94973.63
2022-08-27T06:05:09.153Z,94971.16
2022-08-27T06:07:10.978Z,94968.06
2022-08-27T06:09:10.730Z,94963.38
2022-08-27T06:11:09.488Z,94966.22
2022-08-27T06:13:07.864Z,94974.97
2022-08-27T06:15:08.680Z,94973.75
2022-08-27T06:17:07.812Z,94985.75
2022-08-27T06:19:06.610Z,94983.25
2022-08-27T06:21:05.016Z,94983.22
2022-08-27T06:23:03.324Z,94981.09
2022-08-27T06:25:01.774Z,94978.66
2022-08-27T06:26:59.983Z,94981.00
2022-08-27T06:28:58.279Z,94976.25
2022-08-27T06:31:05.673Z,94971.91
2022-08-27T06:33:04.103Z,94975.94
2022-08-27T06:35:02.397Z,94972.06
2022-08-27T06:37:01.320Z,94988.34
2022-08-27T06:39:00.026Z,94975.81
2022-08-27T06:40:58.754Z,94984.81
2022-08-27T06:42:56.998Z,94983.13
2022-08-27T06:44:55.548Z,94976.78
2022-08-27T06:46:55.865Z,94979.78
2022-08-27T06:48:55.422Z,94971.59
2022-08-27T06:50:53.570Z,94978.25
2022-08-27T06:52:51.951Z,94968.50
2022-08-27T06:54:50.553Z,94973.22
2022-08-27T06:56:50.098Z,94971.88
2022-08-27T06:58:52.980Z,94971.06
2022-08-27T07:00:53.394Z,94972.75
2022-08-27T07:02:53.843Z,94978.31
2022-08-27T07:04:54.207Z,94981.06
2022-08-27T07:06:54.913Z,94971.47
2022-08-27T07:08:54.778Z,94973.75
2022-08-27T07:10:57.150Z,94968.44
2022-08-27T07:12:56.008Z,94975.00
2022-08-27T07:14:54.366Z,94967.25
2022-08-27T07:16:52.697Z,94965.94
2022-08-27T07:18:56.341Z,94958.28
2022-08-27T07:20:55.919Z,94969.50
2022-08-27T07:22:58.613Z,94963.97
2022-08-27T07:24:56.815Z,94964.97
2022-08-27T07:26:55.147Z,94958.16
2022-08-27T07:28:54.147Z,94967.81
2022-08-27T07:30:53.611Z,94968.47
2022-08-27T07:32:52.777Z,94963.53
2022-08-27T07:34:52.545Z,94977.91
2022-08-27T07:36:51.364Z,94969.63
2022-08-27T07:38:56.540Z,94974.97
2022-08-27T07:40:59.377Z,94969.50
2022-08-27T07:43:20.112Z,94973.94
2022-08-27T07:45:18.793Z,94967.53
2022-08-27T07:47:17.077Z,94970.69
2022-08-27T07:49:15.373Z,94980.00
2022-08-27T07:51:17.368Z,94970.25
2022-08-27T07:53:15.731Z,94972.47
2022-08-27T07:55:14.889Z,94965.81
2022-08-27T07:57:13.203Z,94967.28
2022-08-27T07:59:12.507Z,94969.31
2022-08-27T08:01:11.904Z,94965.88
2022-08-27T08:03:10.251Z,94967.72
2022-08-27T08:05:10.079Z,94972.25
2022-08-27T08:07:09.771Z,94967.41
2022-08-27T08:09:11.477Z,94966.97
2022-08-27T08:11:10.446Z,94965.09
2022-08-27T08:13:08.834Z,94965.88
2022-08-27T08:15:09.845Z,94962.44
2022-08-27T08:17:10.257Z,94959.78
2022-08-27T08:19:09.304Z,94953.41
2022-08-27T08:21:09.957Z,94962.97
2022-08-27T08:23:10.663Z,94953.47
2022-08-27T08:25:12.856Z,94957.16
2022-08-27T08:27:11.317Z,94950.84
2022-08-27T08:29:09.584Z,94952.56
2022-08-27T08:31:16.283Z,94951.13
2022-08-27T08:33:14.928Z,94942.03
2022-08-27T08:35:13.487Z,94946.47
2022-08-27T08:37:13.433Z,94938.41
2022-08-27T08:39:13.260Z,94946.81
2022-08-27T08:41:40.088Z,94938.69
2022-08-27T08:43:41.784Z,94946.31
2022-08-27T08:45:43.691Z,94948.72
2022-08-27T08:47:47.329Z,94944.16
2022-08-27T08:49:52.808Z,94938.91
2022-08-27T08:51:54.694Z,94940.59
2022-08-27T08:53:56.367Z,94948.47
2022-08-27T08:56:00.382Z,94944.66
2022-08-27T08:58:10.710Z,94949.44
2022-08-27T09:00:13.417Z,94946.16
2022-08-27T09:02:14.518Z,94942.47
2022-08-27T09:04:13.989Z,94936.13
2022-08-27T09:06:19.936Z,94936.13
2022-08-27T09:08:41.832Z,94941.66
2022-08-27T09:10:46.128Z,94940.34
2022-08-27T09:12:45.824Z,94933.94
2022-08-27T09:14:48.265Z,94933.22
2022-08-27T09:16:46.704Z,94924.81
2022-08-27T09:18:45.836Z,94925.63
2022-08-27T09:20:55.743Z,94930.94
2022-08-27T09:23:04.965Z,94925.28
2022-08-27T09:25:10.469Z,94917.38
2022-08-27T09:27:12.486Z,94921.09
2022-08-27T09:29:20.106Z,94918.75
2022-08-27T09:31:21.415Z,94914.63
2022-08-27T09:33:21.554Z,94922.81
2022-08-27T09:35:21.882Z,94909.41
2022-08-27T09:37:33.927Z,94919.94
2022-08-27T09:39:48.618Z,94916.03
2022-08-27T09:41:49.010Z,94914.38
2022-08-27T09:43:58.823Z,94914.63
2022-08-27T09:46:01.701Z,94911.00
2022-08-27T09:48:07.496Z,94918.34
2022-08-27T09:50:08.941Z,94915.94
2022-08-27T09:52:07.871Z,94915.78
2022-08-27T09:54:06.758Z,94916.06
2022-08-27T09:56:07.768Z,94915.84
2022-08-27T09:58:09.418Z,94918.34
2022-08-27T10:00:15.229Z,94911.47
2022-08-27T10:02:18.706Z,94905.97
2022-08-27T10:04:25.273Z,94917.88
2022-08-27T10:06:29.267Z,94910.91
2022-08-27T10:08:37.351Z,94902.00
2022-08-27T10:10:45.327Z,94903.06
2022-08-27T10:12:52.761Z,94903.28
2022-08-27T10:14:55.503Z,94895.66
2022-08-27T10:17:05.975Z,94902.66
2022-08-27T10:19:18.028Z,94900.16
2022-08-27T10:21:23.257Z,94891.72
2022-08-27T10:23:35.296Z,94899.81
2022-08-27T10:25:41.392Z,94902.19
2022-08-27T10:27:50.986Z,94902.34
2022-08-27T10:30:03.747Z,94897.59
2022-08-27T10:32:09.732Z,94888.88
2022-08-27T10:34:21.225Z,94891.47
2022-08-27T10:36:40.024Z,94894.25
2022-08-27T10:38:44.872Z,94901.91
2022-08-27T10:40:49.712Z,94898.25
2022-08-27T10:42:57.577Z,94903.44
2022-08-27T10:45:09.621Z,94898.34
2022-08-27T10:47:24.562Z,94896.66
2022-08-27T10:49:36.430Z,94899.81
2022-08-27T10:51:42.656Z,94892.09
2022-08-27T10:53:50.341Z,94895.53
2022-08-27T10:55:55.947Z,94899.78
2022-08-27T10:58:07.824Z,94899.81
2022-08-27T11:00:12.101Z,94895.69
2022-08-27T11:02:20.504Z,94895.16
2022-08-27T11:04:27.667Z,94893.03
2022-08-27T11:06:30.260Z,94893.28
2022-08-27T11:08:40.909Z,94889.69
2022-08-27T11:10:43.305Z,94882.31
2022-08-27T11:12:45.557Z,94880.66
2022-08-27T11:14:49.436Z,94880.66
2022-08-27T11:16:54.193Z,94880.44
2022-08-27T11:18:55.326Z,94886.78
2022-08-27T11:21:00.933Z,94883.75
2022-08-27T11:23:05.658Z,94886.16
2022-08-27T11:25:11.939Z,94872.84
2022-08-27T11:27:11.165Z,94873.66
2022-08-27T11:29:17.419Z,94871.47
2022-08-27T11:31:21.183Z,94872.88
2022-08-27T11:33:27.582Z,94867.16
2022-08-27T11:35:37.156Z,94870.09
2022-08-27T11:38:04.521Z,94864.09
2022-08-27T11:40:26.743Z,94863.56
2022-08-27T11:42:36.582Z,94857.84
2022-08-27T11:44:41.396Z,94863.56
2022-08-27T11:46:45.386Z,94858.97
2022-08-27T11:48:45.233Z,94860.63
2022-08-27T11:50:55.840Z,94860.31
2022-08-27T11:53:02.826Z,94857.88
2022-08-27T11:55:15.004Z,94862.19
2022-08-27T11:57:26.342Z,94863.53
2022-08-27T11:59:32.853Z,94855.94
2022-08-27T12:01:32.729Z,94851.88
2022-08-27T12:03:32.845Z,94845.66
2022-08-27T12:05:42.163Z,94839.44
2022-08-27T12:07:45.203Z,94841.63
2022-08-27T12:10:02.905Z,94842.97
2022-08-27T12:12:11.225Z,94836.19
2022-08-27T12:14:19.314Z,94831.81
2022-08-27T12:16:30.710Z,94831.84
2022-08-27T12:19:04.777Z,94834.81
2022-08-27T12:21:12.807Z,94833.44
2022-08-27T12:23:44.790Z,94822.00
2022-08-27T12:25:56.335Z,94826.56
2022-08-27T12:28:00.174Z,94818.19
2022-08-27T12:30:01.135Z,94832.06
2022-08-27T12:32:12.614Z,94815.75
2022-08-27T12:34:16.333Z,94820.13
2022-08-27T12:36:28.023Z,94812.78
2022-08-27T12:38:42.761Z,94821.75
2022-08-27T12:40:51.900Z,94812.53
2022-08-27T12:42:50.891Z,94819.06
2022-08-27T12:44:56.006Z,94819.03
2022-08-27T12:46:59.907Z,94821.41
2022-08-27T12:49:09.966Z,94814.03
2022-08-27T12:51:25.104Z,94815.41
2022-08-27T12:53:36.678Z,94817.84
2022-08-27T12:55:49.871Z,94818.84
2022-08-27T12:57:57.219Z,94816.38
2022-08-27T13:00:07.618Z,94812.06
2022-08-27T13:02:19.155Z,94812.59
2022-08-27T13:04:23.282Z,94808.56
2022-08-27T13:06:24.462Z,94812.59
2022-08-27T13:08:25.459Z,94809.63
2022-08-27T13:10:29.401Z,94811.53
2022-08-27T13:12:27.963Z,94805.25
2022-08-27T13:14:30.008Z,94809.88
2022-08-27T13:16:29.939Z,94808.19
2022-08-27T13:18:29.478Z,94807.44
2022-08-27T13:20:29.251Z,94808.00
2022-08-27T13:22:32.473Z,94794.16
2022-08-27T13:24:33.669Z,94799.56
2022-08-27T13:26:37.134Z,94792.03
2022-08-27T13:28:37.770Z,94784.72
2022-08-27T13:30:39.536Z,94785.59
2022-08-27T13:32:39.101Z,94791.81
2022-08-27T13:34:40.377Z,94788.78
2022-08-27T13:36:54.888Z,94795.84
2022-08-27T13:38:53.383Z,94793.41
2022-08-27T13:40:59.105Z,94794.72
2022-08-27T13:43:03.571Z,94792.19
2022-08-27T13:45:06.299Z,94794.09
2022-08-27T13:47:09.582Z,94782.16
2022-08-27T13:49:18.260Z,94786.22
2022-08-27T13:51:25.404Z,94782.41
2022-08-27T13:53:44.356Z,94781.06
2022-08-27T13:55:49.156Z,94785.69
2022-08-27T13:57:50.820Z,94784.03
2022-08-27T13:59:49.549Z,94791.63
2022-08-27T14:01:57.281Z,94785.91
2022-08-27T14:04:01.535Z,94790.81
2022-08-27T14:06:00.912Z,94795.97
2022-08-27T14:08:01.166Z,94797.31
2022-08-27T14:10:06.802Z,94791.88
2022-08-27T14:12:07.875Z,94793.25
2022-08-27T14:14:06.920Z,94789.97
2022-08-27T14:16:15.685Z,94787.53
2022-08-27T14:18:42.210Z,94791.78
2022-08-27T14:20:44.854Z,94788.03
2022-08-27T14:22:43.967Z,94793.19
2022-08-27T14:24:42.403Z,94791.56
2022-08-27T14:26:40.645Z,94795.41
2022-08-27T14:28:39.024Z,94793.78
2022-08-27T14:30:37.242Z,94798.66
2022-08-27T14:32:36.243Z,94803.56
2022-08-27T14:34:34.567Z,94797.59
2022-08-27T14:36:38.157Z,94800.56
2022-08-27T14:38:39.534Z,94796.47
2022-08-27T14:40:39.598Z,94800.75
2022-08-27T14:42:38.698Z,94797.53
2022-08-27T14:44:37.268Z,94793.78
2022-08-27T14:46:41.500Z,94800.00
2022-08-27T14:48:51.855Z,94805.69
2022-08-27T14:50:50.939Z,94806.53
2022-08-27T14:52:50.612Z,94811.06
2022-08-27T14:54:48.808Z,94802.91
2022-08-27T14:56:47.135Z,94806.44
2022-08-27T14:58:45.423Z,94803.44
2022-08-27T15:00:44.380Z,94802.41
2022-08-27T15:02:48.831Z,94801.81
2022-08-27T15:04:48.063Z,94794.50
2022-08-27T15:06:46.418Z,94798.31
2022-08-27T15:08:48.123Z,94793.44
2022-08-27T15:10:46.444Z,94797.75
2022-08-27T15:12:45.075Z,94798.53
2022-08-27T15:14:44.485Z,94795.53
2022-08-27T15:16:44.702Z,94796.06
2022-08-27T15:18:43.122Z,94798.16
2022-08-27T15:20:52.004Z,94801.38
2022-08-27T15:22:53.087Z,94801.03
2022-08-27T15:24:56.196Z,94791.56
2022-08-27T15:26:57.918Z,94787.66
2022-08-27T15:28:56.247Z,94785.16
2022-08-27T15:30:54.515Z,94782.72
2022-08-27T15:32:53.426Z,94781.63
2022-08-27T15:34:51.677Z,94762.69
2022-08-27T15:36:51.821Z,94769.66
2022-08-27T15:38:50.090Z,94775.53
2022-08-27T15:40:50.229Z,94784.19
2022-08-27T15:42:53.968Z,94786.59
2022-08-27T15:44:55.180Z,94786.56
2022-08-27T15:46:53.485Z,94786.00
2022-08-27T15:48:51.703Z,94784.56
2022-08-27T15:50:50.291Z,94793.25
2022-08-27T15:52:50.052Z,94791.88
2022-08-27T15:54:49.187Z,94784.53
2022-08-27T15:56:48.899Z,94786.41
2022-08-27T15:58:47.872Z,94789.09
2022-08-27T16:00:48.600Z,94785.75
2022-08-27T16:02:57.601Z,94792.75
2022-08-27T16:04:56.035Z,94793.00
2022-08-27T16:06:54.959Z,94800.28
2022-08-27T16:08:53.948Z,94807.28
2022-08-27T16:10:52.454Z,94799.44
2022-08-27T16:12:52.014Z,94802.09
2022-08-27T16:14:50.567Z,94803.66
2022-08-27T16:16:50.406Z,94804.16
2022-08-27T16:18:48.680Z,94809.78
2022-08-27T16:20:47.084Z,94811.88
2022-08-27T16:22:46.282Z,94814.78
2022-08-27T16:24:44.711Z,94811.22
2022-08-27T16:26:43.075Z,94805.22
2022-08-27T16:28:42.724Z,94826.03
2022-08-27T16:30:41.299Z,94823.00
2022-08-27T16:32:40.173Z,94820.53
2022-08-27T16:34:38.574Z,94827.53
2022-08-27T16:36:36.866Z,94823.97
2022-08-27T16:38:36.060Z,94837.44
2022-08-27T16:40:40.183Z,94836.00
2022-08-27T16:42:45.595Z,94839.97
2022-08-27T16:44:46.711Z,94833.38
2022-08-27T16:46:45.564Z,94835.44
2022-08-27T16:49:01.792Z,94835.78
2022-08-27T16:51:00.796Z,94843.19
2022-08-27T16:52:59.163Z,94844.75
2022-08-27T16:54:57.890Z,94855.75
2022-08-27T16:56:56.707Z,94845.19
2022-08-27T16:58:55.161Z,94852.34
2022-08-27T17:00:57.215Z,94844.06
2022-08-27T17:02:55.476Z,94851.97
2022-08-27T17:05:07.245Z,94854.84
2022-08-27T17:07:12.654Z,94858.47
2022-08-27T17:09:11.910Z,94863.81
2022-08-27T17:11:10.286Z,94864.47
2022-08-27T17:13:10.534Z,94858.97
2022-08-27T17:15:10.122Z,94862.31
2022-08-27T17:17:10.446Z,94859.78
2022-08-27T17:19:09.920Z,94869.91
2022-08-27T17:21:14.711Z,94863.38
2022-08-27T17:23:23.042Z,94863.03
2022-08-27T17:25:21.372Z,94865.47
2022-08-27T17:27:28.580Z,94866.19
2022-08-27T17:29:27.042Z,94878.19
2022-08-27T17:31:29.960Z,94880.16
2022-08-27T17:33:32.264Z,94880.16
2022-08-27T17:35:30.425Z,94884.91
2022-08-27T17:37:28.781Z,94895.03
2022-08-27T17:39:27.185Z,94897.38
2022-08-27T17:41:33.428Z,94906.47
2022-08-27T17:43:32.926Z,94907.50
2022-08-27T17:45:31.582Z,94902.34
2022-08-27T17:47:30.042Z,94903.31
2022-08-27T17:49:31.184Z,94906.97
2022-08-27T17:51:29.701Z,94910.50
2022-08-27T17:53:28.508Z,94915.47
2022-08-27T17:55:26.775Z,94911.03
2022-08-27T17:57:27.739Z,94914.06
2022-08-27T17:59:26.326Z,94918.53
2022-08-27T18:01:28.741Z,94917.31
2022-08-27T18:03:27.186Z,94923.84
2022-08-27T18:05:28.963Z,94927.34
2022-08-27T18:07:27.811Z,94928.47
2022-08-27T18:09:26.050Z,94931.38
2022-08-27T18:11:25.310Z,94933.78
2022-08-27T18:13:23.651Z,94936.69
2022-08-27T18:15:24.970Z,94934.81
2022-08-27T18:17:23.375Z,94938.72
2022-08-27T18:19:21.692Z,94935.97
2022-08-27T18:21:25.097Z,94936.66
2022-08-27T18:23:24.134Z,94933.03
2022-08-27T18:25:26.292Z,94930.97
2022-08-27T18:27:30.415Z,94935.19
2022-08-27T18:29:28.864Z,94940.06
2022-08-27T18:31:31.494Z,94945.50
2022-08-27T18:33:29.940Z,94947.56
2022-08-27T18:35:30.845Z,94957.13
2022-08-27T18:37:30.763Z,94953.09
2022-08-27T18:39:29.458Z,94955.47
2022-08-27T18:41:32.005Z,94958.19
2022-08-27T18:43:35.077Z,94963.06
2022-08-27T18:45:36.241Z,94968.69
2022-08-27T18:47:38.013Z,94970.59
2022-08-27T18:49:37.157Z,94970.31
2022-08-27T18:51:49.350Z,94965.56
2022-08-27T18:53:52.103Z,94967.88
2022-08-27T18:55:52.387Z,94962.78
2022-08-27T18:57:51.124Z,94968.16
2022-08-27T18:59:49.754Z,94974.41
2022-08-27T19:01:48.436Z,94977.31
2022-08-27T19:03:49.122Z,94973.63
2022-08-27T19:05:47.705Z,94981.03
2022-08-27T19:07:54.028Z,94978.78
2022-08-27T19:09:54.316Z,94975.09
2022-08-27T19:11:53.050Z,94981.91
2022-08-27T19:13:51.673Z,94984.75
2022-08-27T19:15:55.191Z,94989.09
2022-08-27T19:17:56.909Z,94992.66
2022-08-27T19:19:56.458Z,94998.91
2022-08-27T19:21:55.484Z,95000.75
2022-08-27T19:23:54.280Z,95002.47
2022-08-27T19:25:55.391Z,95003.94
2022-08-27T19:27:54.450Z,95009.31
2022-08-27T19:29:53.602Z,95013.06
2022-08-27T19:31:52.438Z,95013.06
2022-08-27T19:33:51.400Z,95018.44
2022-08-27T19:35:50.287Z,95016.81
2022-08-27T19:37:52.713Z,95023.97
2022-08-27T19:39:52.334Z,95022.50
2022-08-27T19:41:52.961Z,95021.72
2022-08-27T19:43:51.885Z,95020.53
2022-08-27T19:45:50.225Z,95023.88
2022-08-27T19:47:48.874Z,95026.34
2022-08-27T19:49:49.799Z,95032.94
2022-08-27T19:51:48.188Z,95030.50
2022-08-27T19:53:47.255Z,95030.28
2022-08-27T19:55:46.251Z,95030.09
2022-08-27T19:57:46.130Z,95029.47
2022-08-27T19:59:44.909Z,95031.34
2022-08-27T20:01:43.203Z,95033.19
2022-08-27T20:03:42.203Z,95038.78
2022-08-27T20:05:40.956Z,95029.31
2022-08-27T20:07:39.175Z,95035.47
2022-08-27T20:09:37.734Z,95028.47
2022-08-27T20:11:36.092Z,95028.06
2022-08-27T20:13:35.900Z,95026.41
2022-08-27T20:15:37.099Z,95029.94
2022-08-27T20:17:36.518Z,95024.59
2022-08-27T20:19:35.598Z,95035.94
2022-08-27T20:21:33.946Z,95038.63
2022-08-27T20:23:32.283Z,95038.19
2022-08-27T20:25:31.154Z,95046.63
2022-08-27T20:27:29.667Z,95042.31
2022-08-27T20:29:32.671Z,95041.31
2022-08-27T20:31:31.429Z,95049.53
2022-08-27T20:33:29.844Z,95047.50
2022-08-27T20:35:28.382Z,95046.25
2022-08-27T20:37:26.674Z,95048.75
2022-08-27T20:39:25.411Z,95042.72
2022-08-27T20:41:23.684Z,95046.84
2022-08-27T20:43:21.965Z,95036.13
2022-08-27T20:45:21.666Z,95040.03
2022-08-27T20:47:29.146Z,95041.72
2022-08-27T20:49:28.954Z,95039.44
2022-08-27T20:51:28.948Z,95036.97
2022-08-27T20:53:27.157Z,95044.78
2022-08-27T20:55:25.304Z,95046.41
2022-08-27T20:57:23.684Z,95046.41
2022-08-27T20:59:36.028Z,95041.06
2022-08-27T21:01:35.912Z,95051.56
2022-08-27T21:03:34.357Z,95045.00
2022-08-27T21:05:35.205Z,95047.44
2022-08-27T21:07:33.473Z,95045.78
2022-08-27T21:09:31.844Z,95049.31
2022-08-27T21:11:30.253Z,95040.44
2022-08-27T21:13:30.142Z,95042.72
2022-08-27T21:15:28.610Z,95037.56
2022-08-27T21:17:30.966Z,95043.94
2022-08-27T21:19:29.362Z,95051.38
2022-08-27T21:21:27.789Z,95043.31
2022-08-27T21:23:27.749Z,95042.28
2022-08-27T21:25:26.993Z,95042.47
2022-08-27T21:27:25.914Z,95050.28
2022-08-27T21:29:24.191Z,95046.00
2022-08-27T21:31:22.498Z,95042.28
2022-08-27T21:33:22.331Z,95051.13
2022-08-27T21:35:20.895Z,95053.97
2022-08-27T21:37:19.818Z,95055.38
2022-08-27T21:39:18.206Z,95058.47
2022-08-27T21:41:16.527Z,95056.66
2022-08-27T21:43:14.942Z,95062.22
2022-08-27T21:45:13.426Z,95064.69
2022-08-27T21:47:11.945Z,95064.25
2022-08-27T21:49:12.404Z,95064.59
2022-08-27T21:51:12.798Z,95063.75
2022-08-27T21:53:11.013Z,95061.25
2022-08-27T21:55:10.783Z,95061.63
2022-08-27T21:57:10.021Z,95064.91
2022-08-27T21:59:12.984Z,95066.97
2022-08-27T22:01:11.184Z,95069.03
2022-08-27T22:03:11.507Z,95065.75
2022-08-27T22:05:11.537Z,95074.53
2022-08-27T22:07:09.987Z,95064.25
2022-08-27T22:09:08.246Z,95071.03
2022-08-27T22:11:07.195Z,95064.50
2022-08-27T22:13:05.771Z,95070.41
2022-08-27T22:15:05.117Z,95064.63
2022-08-27T22:17:04.282Z,95067.47
2022-08-27T22:19:02.750Z,95066.84
2022-08-27T22:21:02.847Z,95065.59
2022-08-27T22:23:01.273Z,95056.13
2022-08-27T22:25:00.066Z,95061.47
2022-08-27T22:26:58.364Z,95061.06
2022-08-27T22:28:56.788Z,95066.13
2022-08-27T22:30:54.970Z,95062.00
2022-08-27T22:32:53.519Z,95063.63
2022-08-27T22:34:51.924Z,95053.97
2022-08-27T22:36:51.670Z,95056.28
2022-08-27T22:38:49.904Z,95050.75
2022-08-27T22:40:50.521Z,95053.56
2022-08-27T22:42:49.098Z,95059.94
2022-08-27T22:44:47.460Z,95059.75
2022-08-27T22:46:45.889Z,95068.97
2022-08-27T22:48:44.154Z,95074.28
2022-08-27T22:50:42.581Z,95065.75
2022-08-27T22:52:43.301Z,95061.63
2022-08-27T22:54:41.656Z,95067.25
2022-08-27T22:56:39.990Z,95057.59
2022-08-27T22:58:38.255Z,95064.03
2022-08-27T23:00:38.959Z,95067.38
2022-08-27T23:02:37.356Z,95068.28
2022-08-27T23:04:54.026Z,95068.78
2022-08-27T23:06:53.159Z,95066.94
2022-08-27T23:08:53.967Z,95074.50
2022-08-27T23:10:53.303Z,95075.31
2022-08-27T23:12:53.708Z,95069.53
2022-08-27T23:14:52.178Z,95077.50
2022-08-27T23:16:50.548Z,95075.25
2022-08-27T23:18:48.669Z,95075.41
2022-08-27T23:20:46.981Z,95069.00
2022-08-27T23:22:45.654Z,95064.47
2022-08-27T23:24:59.170Z,95064.75
2022-08-27T23:27:14.601Z,95067.13
2022-08-27T23:29:12.912Z,95071.66
2022-08-27T23:31:11.939Z,95076.56
2022-08-27T23:33:10.281Z,95073.66
2022-08-27T23:35:09.858Z,95073.44
2022-08-27T23:37:08.331Z,95072.19
2022-08-27T23:39:06.654Z,95079.31
2022-08-27T23:41:08.150Z,95072.69
2022-08-27T23:43:06.528Z,95065.72
2022-08-27T23:45:06.128Z,95061.81
2022-08-27T23:47:04.725Z,95069.22
2022-08-27T23:49:03.231Z,95063.22